• Join FlightAware (Why Join?)
  • Login
  • US Flag 
03:25PM EDT


 

Airport Tracker/Info


-or-


 

Live Flight TrackerFlight Track Log ✈ SWA1802 ✈ 10-May-2014 ✈ KBUR - KOAK

Flight Track Log - Related Links

Times and Time Zones

All times are in EDT time to prevent confusion due to time zone crossing. See the SWA1802 flight status page for this flight to view local times or setup timezone preferences in your user account.

Time Position Orientation Groundspeed Altitude Reporting Facility
EDT Latitude Longitude Course Direction KTS MPH feet Rate Location/Type
02:34PM 34.1833 -118.3500 248° West 153 176 1,700  Level Southern California TRACON
02:35PM 34.1667 -118.4000 248° West 202 232 3,800 2,280 Climbing Southern California TRACON
02:36PM 34.1778 -118.4717 281° West 222 255 6,900 3,060 Climbing Los Angeles Center
02:37PM 34.2428 -118.5039 338° Northwest 252 290 10,800 3,840 Climbing Los Angeles Center
02:38PM 34.3244 -118.5581 331° Northwest 276 318 14,900 2,100 Climbing Los Angeles Center
02:39PM 34.3975 -118.6025 333° Northwest 291 335 15,200 1,260 Climbing Los Angeles Center
02:40PM 34.4794 -118.6542 333° Northwest 343 395 17,600 2,820 Climbing Los Angeles Center
02:41PM 34.5653 -118.7092 332° Northwest 351 404 21,100 3,060 Climbing Los Angeles Center
02:42PM 34.6558 -118.7686 332° Northwest 369 425 24,000 2,820 Climbing Los Angeles Center
02:43PM 34.7703 -118.8414 332° Northwest 383 441 27,000 2,520 Climbing Los Angeles Center
02:44PM 34.8606 -118.9164 326° Northwest 394 453 29,300 2,220 Climbing Los Angeles Center
02:45PM 34.9353 -118.9917 320° Northwest 395 455 31,700 2,460 Climbing Los Angeles Center
02:46PM 35.0367 -119.0903 321° Northwest 390 449 34,500 2,220 Climbing Los Angeles Center
02:48PM 35.1197 -119.1697 322° Northwest 387 445 36,400 1,680 Climbing Los Angeles Center
02:49PM 35.2033 -119.2517 321° Northwest 387 445 38,000 720 Climbing Los Angeles Center
02:50PM 35.2858 -119.3336 321° Northwest 386 444 38,000  Level Los Angeles Center
02:51PM 35.3692 -119.4164 321° Northwest 386 444 38,000  Level Los Angeles Center
02:52PM 35.4675 -119.5122 322° Northwest 385 443 38,000  Level Los Angeles Center
02:53PM 35.5478 -119.5936 320° Northwest 380 437 38,000  Level Los Angeles Center
02:54PM 35.6292 -119.6744 321° Northwest 380 437 38,000 -240 Level Los Angeles Center
02:54PM 35.6775 -119.7225 321° Northwest 380 437 37,700 -780 Descending Oakland Center
02:55PM 35.7572 -119.8019 321° Northwest 377 434 36,800 -900 Descending Oakland Center
02:56PM 35.8356 -119.8822 320° Northwest 374 430 35,900 -960 Descending Oakland Center
02:57PM 35.9142 -119.9614 321° Northwest 372 428 34,900 -1,140 Descending Oakland Center
02:58PM 36.0067 -120.0539 321° Northwest 362 417 33,600 -1,080 Descending Oakland Center
02:59PM 36.0819 -120.1308 320° Northwest 359 413 32,700 -960 Descending Oakland Center
03:00PM 36.1550 -120.2061 320° Northwest 349 402 31,700 -1,080 Descending Oakland Center
03:01PM 36.2278 -120.2794 321° Northwest 344 396 30,600 -1,080 Descending Oakland Center
03:03PM 36.2994 -120.3525 321° Northwest 341 392 29,600 -960 Descending Oakland Center
03:04PM 36.3703 -120.4244 321° Northwest 334 384 28,700 -960 Descending Oakland Center
03:05PM 36.4400 -120.4978 320° Northwest 332 382 27,700 -840 Descending Oakland Center
03:06PM 36.5078 -120.5683 320° Northwest 326 375 27,000 -360 Descending Oakland Center
03:07PM 36.5947 -120.6536 322° Northwest 332 382 27,000  Level Oakland Center
03:08PM 36.6669 -120.7303 320° Northwest 336 387 27,000 -60 Level Oakland Center
03:09PM 36.7381 -120.8039 320° Northwest 337 388 26,900 -780 Descending Oakland Center
03:10PM 36.8000 -120.8833 314° West 323 372 25,500 -1,620 Descending Oakland Center
03:11PM 36.8619 -120.9489 320° Northwest 312 359 23,700 -1,920 Descending Oakland Center
03:12PM 36.9297 -121.0247 318° Northwest 321 369 21,600 -2,280 Descending Oakland Center
03:13PM 37.0078 -121.1169 317° Northwest 322 371 19,100 -1,980 Descending Oakland Center
03:14PM 37.0617 -121.1775 318° Northwest 303 349 17,600 -1,860 Descending Oakland Center
03:15PM 37.1275 -121.2558 317° Northwest 291 335 15,400 -2,040 Descending Oakland Center
03:16PM 37.1853 -121.3228 317° Northwest 287 330 13,500 -1,740 Descending Oakland Center
03:17PM 37.2394 -121.3850 318° Northwest 270 311 11,900 -1,440 Descending Oakland Center
03:18PM 37.2933 -121.4453 318° Northwest 261 300 10,600 -1,140 Descending Oakland Center
03:19PM 37.3447 -121.5069 316° Northwest 258 297 9,600 -1,080 Descending Oakland Center
03:20PM 37.4000 -121.5708 317° Northwest 253 291 8,500 -1,080 Descending Oakland Center
03:21PM 37.4531 -121.6317 318° Northwest 258 297 7,500 -960 Descending Oakland Center
03:22PM 37.4922 -121.7056 304° West 255 293 6,600 -780 Descending Oakland Center
03:23PM 37.5078 -121.7906 283° West 255 293 6,000 -840 Descending Oakland Center
03:24PM 37.5250 -121.8825 283° West 231 266 5,000 -780 Descending Oakland Center
03:25PM 37.5400 -121.9542 285° West 219 252 4,500 -360 Descending Oakland Center
03:26PM 37.5631 -122.0100 298° West 194 223 4,300 -540 Descending Oakland Center
03:27PM 37.5967 -122.0600 310° West 189 217 3,400 -960 Descending Oakland Center
03:28PM 37.6333 -122.1167 309° West 174 200 2,300 -960 Descending Northern Cal TRACON
03:29PM 37.6667 -122.1500 322° Northwest 138 159 1,400 -840 Descending Northern Cal TRACON
03:30PM 37.6833 -122.1833 302° West 125 144 700 -720 Descending Northern Cal TRACON
03:33PM 37.7167 -122.2167 270° West  Level FlightAware Approximate